Time;durP1;ratioP1;P1;durP2;ratioP2;P2;SDS_P1;SDS_P2;PMS_P1;PMS_P2;Temp;Humidity;BMP_temperature;BMP_pressure;BME280_temperature;BME280_humidity;BME280_pressure;Samples;Min_cycle;Max_cycle;Signal;HPM_P1;HPM_P2
2023/09/01 00:00:19;;;;;;;3.45;2.10;;;;;;;11.70;100.00;101058.25;1037856;28;20300;-50
2023/09/01 00:01:47;;;;;;;2.45;1.88;;;;;;;11.71;100.00;101064.41;1038112;28;20368;-54
2023/09/01 00:03:12;;;;;;;2.45;2.00;;;;;;;11.61;100.00;101058.75;1041385;28;20300;-54
2023/09/01 00:04:02;;;;;;;2.75;1.98;;;;;;;11.81;100.00;101063.97;1032981;28;20305;-53
2023/09/01 00:05:08;;;;;;;2.25;2.05;;;;;;;11.78;100.00;101073.22;1044741;28;20306;-49
2023/09/01 00:05:50;;;;;;;2.13;1.88;;;;;;;11.48;100.00;101064.97;1040923;28;20312;-54
2023/09/01 00:06:30;;;;;;;6.97;2.20;;;;;;;11.54;100.00;101069.47;1036786;28;20367;-50
2023/09/01 00:07:15;;;;;;;2.38;1.92;;;;;;;11.47;100.00;101074.03;1035488;28;20034;-52
2023/09/01 00:08:12;;;;;;;4.60;2.60;;;;;;;11.58;100.00;101070.69;1037656;28;20296;-51
2023/09/01 00:09:04;;;;;;;3.80;2.05;;;;;;;11.57;100.00;101073.56;1035557;28;20354;-54
2023/09/01 00:10:31;;;;;;;5.55;2.67;;;;;;;11.36;100.00;101077.41;1037725;28;20823;-49
2023/09/01 00:11:19;;;;;;;5.00;2.65;;;;;;;11.44;100.00;101069.94;1045654;28;20965;-54
2023/09/01 00:12:18;;;;;;;2.38;2.05;;;;;;;11.58;100.00;101070.69;1043044;28;20299;-54
2023/09/01 00:13:13;;;;;;;2.85;2.42;;;;;;;11.66;100.00;101067.72;1035104;28;20301;-50
2023/09/01 00:14:19;;;;;;;4.68;2.30;;;;;;;11.75;100.00;101076.28;1037819;28;20354;-50
2023/09/01 00:14:57;;;;;;;5.70;3.25;;;;;;;11.74;100.00;101074.63;1038878;28;21486;-57
2023/09/01 00:15:33;;;;;;;6.68;3.67;;;;;;;11.55;100.00;101075.63;1043701;28;20657;-53
2023/09/01 00:16:08;;;;;;;3.17;2.50;;;;;;;11.51;100.00;101069.91;1042860;28;20654;-54
2023/09/01 00:17:05;;;;;;;3.00;2.30;;;;;;;11.57;100.00;101068.22;1042628;28;20355;-54
2023/09/01 00:17:43;;;;;;;4.72;2.70;;;;;;;11.66;100.00;101072.25;1045185;28;20725;-53
2023/09/01 00:18:38;;;;;;;2.88;2.40;;;;;;;11.58;100.00;101069.84;1034897;28;20299;-50
2023/09/01 00:19:34;;;;;;;;;;;;;;;11.57;100.00;101063.72;1034271;28;20290;-53
2023/09/01 00:20:17;;;;;;;3.53;3.22;;;;;;;11.68;100.00;101064.84;1037372;28;19922;-53
2023/09/01 00:21:22;;;;;;;3.30;2.55;;;;;;;11.81;100.00;101066.63;1039430;28;20667;-54
2023/09/01 00:22:15;;;;;;;2.33;2.13;;;;;;;11.50;100.00;101072.78;1037871;28;20712;-53
2023/09/01 00:23:03;;;;;;;4.90;3.03;;;;;;;11.52;100.00;101068.06;1043351;28;20912;-53
2023/09/01 00:23:49;;;;;;;3.17;2.90;;;;;;;11.56;100.00;101066.59;1034327;28;20308;-49
2023/09/01 00:24:48;;;;;;;4.05;2.80;;;;;;;11.67;100.00;101066.69;1031935;28;20317;-52
2023/09/01 00:25:46;;;;;;;4.10;2.92;;;;;;;11.59;100.00;101058.16;1037424;28;20292;-49
2023/09/01 00:26:34;;;;;;;3.90;3.35;;;;;;;11.52;100.00;101066.22;1045295;28;20327;-50
2023/09/01 00:27:20;;;;;;;5.38;4.07;;;;;;;11.42;100.00;101066.69;1039317;28;20120;-51
2023/09/01 00:28:05;;;;;;;10.50;4.72;;;;;;;11.67;100.00;101065.88;1036933;28;20379;-51
2023/09/01 00:29:15;;;;;;;4.63;3.97;;;;;;;11.44;100.00;101064.59;1036740;28;20893;-50
2023/09/01 00:30:00;;;;;;;4.38;3.60;;;;;;;11.56;100.00;101053.25;1039604;28;21046;-49
2023/09/01 00:30:53;;;;;;;9.38;5.10;;;;;;;11.64;100.00;101060.97;1038001;28;20315;-51
2023/09/01 00:31:38;;;;;;;9.25;5.72;;;;;;;11.79;100.00;101056.19;1039974;28;20734;-50
2023/09/01 00:33:05;;;;;;;12.35;5.88;;;;;;;11.76;100.00;101056.56;1037865;28;20307;-53
2023/09/01 00:33:52;;;;;;;6.90;5.32;;;;;;;11.73;100.00;101062.31;1040296;28;20658;-48
2023/09/01 00:35:06;;;;;;;8.55;6.32;;;;;;;11.82;100.00;101057.59;1038845;28;20363;-53
2023/09/01 00:35:44;;;;;;;6.40;5.80;;;;;;;11.89;100.00;101059.16;1034598;28;21030;-53
2023/09/01 00:36:29;;;;;;;7.07;5.22;;;;;;;11.75;100.00;101062.94;1034702;28;20297;-52
2023/09/01 00:37:06;;;;;;;7.47;5.10;;;;;;;11.85;100.00;101060.63;1032424;28;20042;-52
2023/09/01 00:37:47;;;;;;;7.82;5.60;;;;;;;11.83;100.00;101065.38;1035216;28;20305;-52
2023/09/01 00:38:32;;;;;;;10.52;5.88;;;;;;;11.79;100.00;101069.53;1032603;28;20298;-52
2023/09/01 00:39:35;;;;;;;7.65;5.55;;;;;;;11.81;100.00;101064.78;1026260;28;20071;-52
2023/09/01 00:40:19;;;;;;;6.93;6.15;;;;;;;11.89;100.00;101071.69;1036579;28;20313;-54
2023/09/01 00:41:13;;;;;;;8.35;5.47;;;;;;;11.92;100.00;101069.38;1040031;28;20391;-53
2023/09/01 00:42:02;;;;;;;6.68;5.40;;;;;;;11.76;100.00;101072.56;1044292;28;20300;-50
2023/09/01 00:42:41;;;;;;;6.20;5.18;;;;;;;11.73;100.00;101073.00;1035925;28;20849;-53
2023/09/01 00:43:25;;;;;;;8.10;5.70;;;;;;;11.71;100.00;101075.06;1037219;28;20309;-54
2023/09/01 00:44:03;;;;;;;7.60;6.03;;;;;;;11.67;100.00;101069.34;1038020;28;20372;-49
2023/09/01 00:44:40;;;;;;;7.65;6.30;;;;;;;11.58;100.00;101069.84;1044811;28;20299;-51
2023/09/01 00:45:21;;;;;;;6.18;5.57;;;;;;;11.57;100.00;101065.56;1036077;28;21045;-50
2023/09/01 00:46:15;;;;;;;6.18;5.50;;;;;;;11.54;100.00;101064.16;1028640;28;20385;-49
2023/09/01 00:47:00;;;;;;;5.85;5.13;;;;;;;11.56;100.00;101066.59;1029545;28;20301;-51
2023/09/01 00:47:33;;;;;;;5.93;5.32;;;;;;;11.62;100.00;101065.72;1033579;28;20298;-53
2023/09/01 00:48:18;;;;;;;7.88;5.47;;;;;;;11.52;100.00;101070.72;1028046;28;20306;-54
2023/09/01 00:49:01;;;;;;;5.60;4.80;;;;;;;11.75;100.00;101070.94;1034027;28;20827;-49
2023/09/01 00:49:53;;;;;;;7.95;4.93;;;;;;;11.69;100.00;101069.16;1036064;28;20319;-53
2023/09/01 00:50:36;;;;;;;4.50;3.80;;;;;;;11.72;100.00;101071.38;1040408;28;20308;-53
2023/09/01 00:51:27;;;;;;;6.95;4.15;;;;;;;11.57;100.00;101071.72;1046135;28;20389;-53
2023/09/01 00:52:11;;;;;;;5.18;4.63;;;;;;;11.61;100.00;101070.25;1041575;28;20826;-51
2023/09/01 00:54:16;;;;;;;7.35;3.50;;;;;;;11.73;100.00;101073.00;1034229;28;20621;-52
2023/09/01 00:55:06;;;;;;;11.60;4.78;;;;;;;11.62;100.00;101071.06;1040455;28;20308;-54
2023/09/01 00:55:56;;;;;;;5.45;4.22;;;;;;;11.66;100.00;101072.25;1039177;28;20358;-53
2023/09/01 00:56:46;;;;;;;4.30;3.90;;;;;;;11.39;100.00;101066.28;1032563;28;20854;-50
2023/09/01 00:57:31;;;;;;;5.63;4.05;;;;;;;11.41;100.00;101069.56;1032461;28;20739;-52
2023/09/01 00:58:15;;;;;;;4.45;4.05;;;;;;;11.39;100.00;101064.44;1036114;28;20296;-48
2023/09/01 00:59:22;;;;;;;4.32;3.90;;;;;;;11.23;100.00;101067.66;1040615;28;20048;-51
2023/09/01 01:02:29;;;;;;;3.85;3.45;;;;;;;11.37;100.00;101065.69;1043287;28;20027;-49
2023/09/01 01:03:34;;;;;;;4.65;3.60;;;;;;;11.46;100.00;101073.22;1021594;28;20364;-53
2023/09/01 01:04:45;;;;;;;5.70;4.47;;;;;;;11.31;100.00;101070.03;1022058;29;20342;-51
2023/09/01 01:06:47;;;;;;;7.88;4.68;;;;;;;11.38;100.00;101072.66;1042672;28;20831;-49
2023/09/01 01:10:37;;;;;;;7.13;4.60;;;;;;;11.23;100.00;101067.66;1028120;28;20328;-52
2023/09/01 01:11:48;;;;;;;7.00;4.18;;;;;;;11.32;100.00;101061.00;1019281;29;20444;-54
2023/09/01 01:13:05;;;;;;;10.18;5.22;;;;;;;11.38;100.00;101068.16;1033472;28;20873;-53
2023/09/01 01:13:47;;;;;;;7.25;4.82;;;;;;;11.52;100.00;101068.06;1033492;28;20301;-52
2023/09/01 01:16:40;;;;;;;7.32;5.15;;;;;;;11.16;100.00;101064.19;1046104;28;20310;-50
2023/09/01 01:17:54;;;;;;;4.63;4.22;;;;;;;11.26;100.00;101067.22;1040314;28;20308;-54
2023/09/01 01:18:38;;;;;;;6.50;4.15;;;;;;;11.24;100.00;101063.94;1041442;28;21042;-53
2023/09/01 01:19:56;;;;;;;5.13;4.25;;;;;;;11.21;100.00;101063.53;1034239;28;20360;-54
2023/09/01 01:20:59;;;;;;;5.60;3.80;;;;;;;11.10;100.00;101059.72;1036211;28;20304;-51
2023/09/01 01:21:48;;;;;;;5.35;3.92;;;;;;;11.17;100.00;101063.16;1037439;28;20101;-54
2023/09/01 01:23:04;;;;;;;4.97;3.65;;;;;;;10.99;100.00;101061.22;1047750;28;20354;-52
2023/09/01 01:24:09;;;;;;;4.25;3.25;;;;;;;11.21;100.00;101064.34;1039150;28;20764;-54
2023/09/01 01:24:55;;;;;;;3.65;3.13;;;;;;;11.28;100.00;101065.16;1037535;28;21126;-50
2023/09/01 01:26:16;;;;;;;;;;;;;;;;;;;;;
2023/09/01 01:27:11;;;;;;;4.45;3.45;;;;;;;11.23;100.00;101067.66;1025671;28;20337;-55
2023/09/01 01:28:08;;;;;;;4.80;3.50;;;;;;;10.96;100.00;101064.31;1026382;28;20309;-50
2023/09/01 01:29:01;;;;;;;4.25;3.85;;;;;;;10.89;100.00;101065.34;1026754;28;20306;-51
2023/09/01 01:29:47;;;;;;;8.77;3.50;;;;;;;10.94;100.00;101062.88;1024381;28;20717;-54
2023/09/01 01:32:05;;;;;;;7.25;3.28;;;;;;;10.99;100.00;101061.22;1026487;28;20365;-55
2023/09/01 01:33:49;;;;;;;3.70;3.33;;;;;;;10.81;100.00;101061.91;1022855;28;20330;-52
2023/09/01 01:34:52;;;;;;;8.30;3.92;;;;;;;10.76;100.00;101071.56;1035535;28;20052;-51
2023/09/01 01:35:56;;;;;;;3.95;3.40;;;;;;;10.77;100.00;101063.38;1025158;28;20069;-55
2023/09/01 01:37:04;;;;;;;3.80;3.20;;;;;;;10.94;100.00;101073.53;1026922;28;20898;-54
2023/09/01 01:38:11;;;;;;;4.57;4.10;;;;;;;10.98;100.00;101069.44;1028889;28;20097;-54
2023/09/01 01:40:43;;;;;;;4.00;3.60;;;;;;;10.66;100.00;101076.50;1028996;28;20309;-55
2023/09/01 01:41:37;;;;;;;5.20;4.47;;;;;;;10.60;100.00;101080.84;1032825;28;20794;-54
2023/09/01 01:42:48;;;;;;;7.32;3.78;;;;;;;10.67;100.00;101076.31;1038584;28;20041;-53
2023/09/01 01:43:39;;;;;;;11.30;5.00;;;;;;;10.68;100.00;101079.78;1032047;28;20301;-51
2023/09/01 01:44:39;;;;;;;5.13;4.63;;;;;;;10.65;100.00;101073.03;1024120;28;20317;-49
2023/09/01 01:45:20;;;;;;;8.35;5.72;;;;;;;10.71;100.00;101080.22;1026950;28;20704;-53
2023/09/01 01:46:08;;;;;;;9.55;5.32;;;;;;;10.74;100.00;101082.44;1022242;28;20407;-54
2023/09/01 01:47:07;;;;;;;4.80;4.28;;;;;;;10.62;100.00;101081.44;1006737;29;20301;-53
2023/09/01 01:48:10;;;;;;;8.55;4.35;;;;;;;10.67;100.00;101080.81;1030364;28;20306;-52
2023/09/01 01:49:13;;;;;;;6.25;4.55;;;;;;;10.74;100.00;101085.09;1032125;28;20384;-50
2023/09/01 01:50:01;;;;;;;6.72;5.57;;;;;;;10.68;100.00;101082.44;1030382;28;20472;-54
2023/09/01 01:51:05;;;;;;;5.57;4.50;;;;;;;10.35;100.00;101079.88;1028993;28;20324;-51
2023/09/01 01:52:02;;;;;;;;;;;;;;;;;;;;;
2023/09/01 01:52:45;;;;;;;6.45;5.00;;;;;;;10.33;100.00;101081.94;1028792;28;20306;-51
2023/09/01 01:53:30;;;;;;;6.63;4.50;;;;;;;10.45;100.00;101085.63;1024089;28;20304;-54
2023/09/01 01:54:19;;;;;;;7.90;4.50;;;;;;;10.42;100.00;101080.72;1028479;28;20313;-58
2023/09/01 01:55:01;;;;;;;6.38;4.97;;;;;;;10.39;100.00;101084.59;1028098;28;20832;-53
2023/09/01 01:55:45;;;;;;;7.43;5.03;;;;;;;10.45;100.00;101082.97;1029127;28;20302;-52
2023/09/01 01:56:42;;;;;;;10.70;5.68;;;;;;;10.41;100.00;101085.22;1021081;29;20825;-54
2023/09/01 01:57:35;;;;;;;6.30;5.50;;;;;;;10.31;100.00;101086.66;1019613;28;20367;-55
2023/09/01 01:58:20;;;;;;;8.60;5.28;;;;;;;10.30;100.00;101087.69;1024277;28;20109;-54
2023/09/01 01:59:04;;;;;;;5.70;4.43;;;;;;;10.38;100.00;101084.78;1025036;28;20389;-54
2023/09/01 01:59:36;;;;;;;9.82;4.93;;;;;;;10.40;100.00;101085.41;1022929;28;20353;-53
2023/09/01 02:00:11;;;;;;;8.48;5.70;;;;;;;10.50;100.00;101083.97;1022715;28;20709;-55
2023/09/01 02:00:45;;;;;;;6.72;4.95;;;;;;;10.50;100.00;101088.47;1023845;28;20339;-54
2023/09/01 02:01:17;;;;;;;5.97;5.38;;;;;;;10.54;100.00;101087.00;1028139;28;20410;-54
2023/09/01 02:01:49;;;;;;;6.00;4.97;;;;;;;10.42;100.00;101088.69;1032079;28;20320;-53
2023/09/01 02:02:21;;;;;;;9.40;4.60;;;;;;;10.29;100.00;101080.72;1034722;28;20312;-54
2023/09/01 02:02:52;;;;;;;5.68;4.88;;;;;;;10.33;100.00;101088.09;1030855;28;20946;-55
2023/09/01 02:03:25;;;;;;;9.45;5.03;;;;;;;10.33;100.00;101088.09;1030918;28;20459;-50
2023/09/01 02:03:57;;;;;;;8.80;5.40;;;;;;;10.28;100.00;101084.41;1030707;28;20397;-51
2023/09/01 02:04:29;;;;;;;6.28;4.78;;;;;;;10.21;100.00;101079.94;1031529;28;20862;-50
2023/09/01 02:05:00;;;;;;;5.25;4.75;;;;;;;10.20;100.00;101077.44;1035526;28;20300;-52
2023/09/01 02:05:32;;;;;;;5.60;4.80;;;;;;;10.27;100.00;101080.13;1034896;28;20408;-51
2023/09/01 02:06:05;;;;;;;5.65;4.82;;;;;;;10.23;100.00;101082.38;1036880;28;20289;-52
2023/09/01 02:06:37;;;;;;;4.40;3.97;;;;;;;10.32;100.00;101080.31;1035050;28;20296;-50
2023/09/01 02:07:09;;;;;;;5.13;4.63;;;;;;;10.35;100.00;101082.56;1031237;28;21015;-51
2023/09/01 02:07:41;;;;;;;7.60;6.28;;;;;;;10.36;100.00;101077.00;1035721;28;20305;-51
2023/09/01 02:08:13;;;;;;;8.02;4.68;;;;;;;10.30;100.00;101083.19;1039227;28;20302;-50
2023/09/01 02:08:45;;;;;;;5.05;4.55;;;;;;;10.32;100.00;101080.31;1035572;28;20307;-54
2023/09/01 02:09:16;;;;;;;5.63;4.75;;;;;;;10.51;100.00;101074.13;1039448;28;20421;-53
2023/09/01 02:09:48;;;;;;;5.35;4.45;;;;;;;10.59;100.00;101075.72;1044993;28;20302;-54
2023/09/01 02:10:20;;;;;;;8.20;5.30;;;;;;;10.56;100.00;101082.28;1041225;28;20338;-53
2023/09/01 02:10:52;;;;;;;5.25;4.75;;;;;;;10.45;100.00;101080.28;1043144;28;20789;-52
2023/09/01 02:11:24;;;;;;;14.48;5.55;;;;;;;10.40;100.00;101080.06;1045260;28;20638;-53
2023/09/01 02:11:56;;;;;;;9.30;6.10;;;;;;;10.41;100.00;101073.75;1044002;28;20346;-54
2023/09/01 02:12:28;;;;;;;5.63;5.13;;;;;;;10.34;100.00;101072.94;1041555;28;20303;-53
2023/09/01 02:13:01;;;;;;;8.02;5.18;;;;;;;10.44;100.00;101082.13;1039241;28;20292;-54
2023/09/01 02:13:32;;;;;;;6.03;5.53;;;;;;;10.48;100.00;101082.53;1038999;28;20333;-54
2023/09/01 02:14:07;;;;;;;6.00;5.40;;;;;;;10.60;100.00;101075.50;1036093;28;20316;-54
2023/09/01 02:14:40;;;;;;;8.15;5.90;;;;;;;10.57;100.00;101075.13;1040151;28;21034;-53
2023/09/01 02:15:11;;;;;;;6.18;5.00;;;;;;;10.74;100.00;101090.44;1043673;28;20291;-54
2023/09/01 02:15:53;;;;;;;5.95;5.25;;;;;;;10.78;100.00;101082.84;1040796;28;20306;-54
2023/09/01 02:16:25;;;;;;;11.52;6.28;;;;;;;10.59;100.00;101087.19;1039968;28;20335;-52
2023/09/01 02:16:58;;;;;;;6.00;4.38;;;;;;;10.49;100.00;101087.66;1036986;28;20430;-51
2023/09/01 02:17:30;;;;;;;6.53;5.70;;;;;;;10.43;100.00;101082.34;1033043;28;20819;-50
2023/09/01 02:18:03;;;;;;;7.47;5.40;;;;;;;10.52;100.00;101087.22;1031563;28;20304;-53
2023/09/01 02:18:35;;;;;;;7.78;4.65;;;;;;;10.49;100.00;101086.84;1036516;28;20849;-53
2023/09/01 02:19:09;;;;;;;5.63;4.93;;;;;;;10.47;100.00;101081.72;1039414;28;20309;-51
2023/09/01 02:19:43;;;;;;;7.78;5.85;;;;;;;10.47;100.00;101079.06;1042133;28;20285;-50
2023/09/01 02:20:18;;;;;;;12.10;5.32;;;;;;;10.38;100.00;101082.13;1044624;28;20311;-53
2023/09/01 02:20:51;;;;;;;8.52;4.85;;;;;;;10.41;100.00;101081.75;1043565;28;20444;-54
2023/09/01 02:21:23;;;;;;;6.68;5.75;;;;;;;10.40;100.00;101085.41;1037252;28;20305;-52
2023/09/01 02:21:55;;;;;;;8.20;6.15;;;;;;;10.41;100.00;101089.72;1038964;28;20300;-51
2023/09/01 02:22:26;;;;;;;6.88;6.18;;;;;;;10.51;100.00;101084.78;1035056;28;20297;-49
2023/09/01 02:22:58;;;;;;;6.25;5.45;;;;;;;10.48;100.00;101085.19;1036135;28;20859;-51
2023/09/01 02:23:31;;;;;;;6.07;5.57;;;;;;;10.59;100.00;101081.88;1042041;28;20304;-50
2023/09/01 02:24:03;;;;;;;4.88;4.47;;;;;;;10.55;100.00;101086.00;1042742;28;20296;-53
2023/09/01 02:24:37;;;;;;;6.15;5.53;;;;;;;10.49;100.00;101086.84;1045184;28;20857;-53
2023/09/01 02:25:09;;;;;;;5.50;4.90;;;;;;;10.43;100.00;101085.81;1043434;28;20333;-54
2023/09/01 02:25:40;;;;;;;6.15;4.88;;;;;;;10.57;100.00;101091.91;1043265;28;20382;-54
2023/09/01 02:26:19;;;;;;;6.28;5.25;;;;;;;10.56;100.00;101086.81;1039320;28;20498;-52
2023/09/01 02:26:51;;;;;;;8.90;5.60;;;;;;;10.59;100.00;101089.88;1043237;28;20303;-50
2023/09/01 02:27:22;;;;;;;6.47;5.88;;;;;;;10.69;100.00;101089.44;1041275;28;20812;-52
2023/09/01 02:27:54;;;;;;;5.28;4.78;;;;;;;10.57;100.00;101089.25;1042656;28;20808;-52
2023/09/01 02:28:26;;;;;;;5.50;4.30;;;;;;;10.49;100.00;101092.97;1042957;28;20436;-51
2023/09/01 02:28:59;;;;;;;6.25;5.10;;;;;;;10.53;100.00;101088.03;1043476;28;20775;-54
2023/09/01 02:29:31;;;;;;;6.80;5.20;;;;;;;10.49;100.00;101089.50;1034974;28;20861;-54
2023/09/01 02:30:03;;;;;;;6.55;5.88;;;;;;;10.45;100.00;101090.94;1034698;28;20300;-54
2023/09/01 02:30:35;;;;;;;5.68;5.10;;;;;;;10.46;100.00;101092.59;1034932;28;20391;-53
2023/09/01 02:31:10;;;;;;;7.05;4.93;;;;;;;10.48;100.00;101093.19;1036630;28;20822;-54
2023/09/01 02:31:42;;;;;;;5.95;5.35;;;;;;;10.31;100.00;101089.31;1042702;28;20296;-53
2023/09/01 02:32:13;;;;;;;5.05;4.63;;;;;;;10.33;100.00;101087.28;1043295;28;20296;-53
2023/09/01 02:32:46;;;;;;;8.63;5.13;;;;;;;10.34;100.00;101094.22;1043738;28;20923;-54
2023/09/01 02:33:18;;;;;;;7.97;5.03;;;;;;;10.49;100.00;101081.50;1043513;28;20626;-54
2023/09/01 02:33:50;;;;;;;8.00;5.20;;;;;;;10.52;100.00;101091.75;1043411;28;20315;-54
2023/09/01 02:34:21;;;;;;;5.13;4.47;;;;;;;10.38;100.00;101088.28;1043939;28;20303;-53
2023/09/01 02:34:53;;;;;;;8.70;5.45;;;;;;;10.43;100.00;101087.69;1044176;28;20314;-54
2023/09/01 02:35:25;;;;;;;8.35;6.85;;;;;;;10.55;100.00;101091.31;1042789;28;20386;-53
2023/09/01 02:36:29;;;;;;;6.82;6.20;;;;;;;10.60;100.00;101088.84;1043945;28;20295;-53
2023/09/01 02:37:00;;;;;;;7.15;5.60;;;;;;;10.51;100.00;101090.91;1043181;28;20290;-54
2023/09/01 02:37:33;;;;;;;5.40;4.75;;;;;;;10.42;100.00;101096.69;1042938;28;20303;-54
2023/09/01 02:38:04;;;;;;;7.10;5.80;;;;;;;10.34;100.00;101088.91;1038967;28;20288;-53
2023/09/01 02:38:36;;;;;;;6.68;4.63;;;;;;;10.56;100.00;101092.94;1038781;28;20323;-53
2023/09/01 02:39:08;;;;;;;9.75;5.78;;;;;;;10.56;100.00;101089.47;1035568;28;20300;-50
2023/09/01 02:39:40;;;;;;;6.03;5.43;;;;;;;10.42;100.00;101092.19;1039572;28;20306;-52
2023/09/01 02:40:11;;;;;;;7.47;5.72;;;;;;;10.44;100.00;101091.97;1043006;28;20796;-49
2023/09/01 02:40:44;;;;;;;8.20;5.15;;;;;;;10.48;100.00;101095.84;1037664;28;20297;-49
2023/09/01 02:41:15;;;;;;;6.18;5.57;;;;;;;10.55;100.00;101093.97;1044069;28;20299;-51
2023/09/01 02:41:47;;;;;;;8.15;5.68;;;;;;;10.66;100.00;101084.50;1043194;28;20303;-50
2023/09/01 02:42:19;;;;;;;6.75;6.15;;;;;;;10.68;100.00;101091.28;1039272;28;20453;-51
2023/09/01 02:42:51;;;;;;;8.15;6.18;;;;;;;10.68;100.00;101083.28;1043479;28;20295;-50
2023/09/01 02:43:23;;;;;;;6.00;5.50;;;;;;;10.64;100.00;101084.72;1042478;28;21524;-51
2023/09/01 02:43:55;;;;;;;8.00;5.93;;;;;;;10.66;100.00;101082.66;1043287;28;20830;-49
2023/09/01 02:44:27;;;;;;;6.55;5.72;;;;;;;10.47;100.00;101078.25;1043217;28;20295;-52
2023/09/01 02:44:58;;;;;;;8.27;6.65;;;;;;;10.49;100.00;101081.50;1043808;28;20299;-51
2023/09/01 02:45:30;;;;;;;7.38;6.07;;;;;;;10.47;100.00;101078.25;1044950;28;20310;-48
2023/09/01 02:46:04;;;;;;;6.43;5.57;;;;;;;10.49;100.00;101077.00;1042591;28;20370;-48
2023/09/01 02:46:36;;;;;;;8.55;6.53;;;;;;;10.33;100.00;101073.97;1043499;28;20799;-50
2023/09/01 02:47:08;;;;;;;7.90;7.13;;;;;;;10.27;100.00;101082.78;1043530;28;21723;-51
2023/09/01 02:47:40;;;;;;;9.60;6.47;;;;;;;10.27;100.00;101072.94;1043717;28;20291;-48
2023/09/01 02:48:12;;;;;;;6.97;5.93;;;;;;;10.25;100.00;101077.66;1044670;28;20329;-53
2023/09/01 02:48:45;;;;;;;7.15;5.03;;;;;;;10.26;100.00;101075.81;1044675;28;20337;-53
2023/09/01 02:49:17;;;;;;;6.85;6.25;;;;;;;10.25;100.00;101079.50;1043121;28;20310;-54
2023/09/01 02:49:48;;;;;;;5.85;5.30;;;;;;;10.23;100.00;101076.25;1043304;28;20299;-52
2023/09/01 02:50:20;;;;;;;10.27;6.30;;;;;;;10.23;100.00;101082.38;1043163;28;20299;-49
2023/09/01 02:50:52;;;;;;;9.43;6.32;;;;;;;10.16;100.00;101087.69;1039273;28;20813;-49
2023/09/01 02:51:23;;;;;;;7.80;6.72;;;;;;;10.15;100.00;101080.75;1038995;28;20304;-52
2023/09/01 02:51:56;;;;;;;7.90;6.88;;;;;;;10.18;100.00;101087.50;1038861;28;20296;-50
2023/09/01 02:52:28;;;;;;;6.63;6.00;;;;;;;10.23;100.00;101086.91;1039565;28;20381;-48
2023/09/01 02:53:00;;;;;;;6.43;4.95;;;;;;;10.17;100.00;101089.34;1039485;28;20311;-50
2023/09/01 02:53:32;;;;;;;9.07;5.45;;;;;;;10.38;100.00;101090.13;1043149;28;20797;-49
2023/09/01 02:54:04;;;;;;;7.30;5.63;;;;;;;10.40;100.00;101088.06;1041372;28;20362;-49
2023/09/01 02:54:36;;;;;;;8.80;5.35;;;;;;;10.49;100.00;101092.16;1043168;28;20812;-54
2023/09/01 02:55:08;;;;;;;10.57;5.40;;;;;;;10.43;100.00;101093.00;1043537;28;20309;-54
2023/09/01 02:55:40;;;;;;;7.18;5.15;;;;;;;10.48;100.00;101085.19;1044023;28;20322;-52
2023/09/01 02:56:12;;;;;;;6.57;5.95;;;;;;;10.44;100.00;101094.63;1038824;28;20300;-54
2023/09/01 02:56:44;;;;;;;7.90;6.13;;;;;;;10.38;100.00;101090.13;1036420;28;20309;-54
2023/09/01 02:57:16;;;;;;;6.70;6.00;;;;;;;10.31;100.00;101086.66;1035689;28;20304;-53
2023/09/01 02:57:47;;;;;;;6.93;5.60;;;;;;;10.29;100.00;101091.38;1036494;28;20300;-54
2023/09/01 02:58:19;;;;;;;5.93;5.28;;;;;;;10.17;100.00;101084.00;1040302;28;20292;-54
2023/09/01 02:58:51;;;;;;;6.43;5.57;;;;;;;10.18;100.00;101084.81;1040496;28;20300;-53
2023/09/01 02:59:22;;;;;;;5.60;4.97;;;;;;;10.23;100.00;101085.06;1039752;28;20382;-54
2023/09/01 02:59:54;;;;;;;5.88;5.07;;;;;;;10.16;100.00;101087.69;1039322;28;20304;-54
2023/09/01 03:00:28;;;;;;;9.38;5.97;;;;;;;10.01;100.00;101089.75;1036468;28;20301;-53
2023/09/01 03:01:07;;;;;;;6.68;4.82;;;;;;;10.18;100.00;101090.97;1036327;28;20293;-53
2023/09/01 03:01:40;;;;;;;10.65;5.70;;;;;;;10.16;100.00;101085.03;1035921;28;20300;-52
2023/09/01 03:02:12;;;;;;;7.70;5.05;;;;;;;10.23;100.00;101086.91;1033305;28;20078;-54
2023/09/01 03:02:44;;;;;;;6.30;5.70;;;;;;;10.33;100.00;101087.28;1031804;28;20407;-53
2023/09/01 03:03:16;;;;;;;12.80;5.88;;;;;;;10.18;100.00;101085.66;1036064;28;20363;-54
2023/09/01 03:03:48;;;;;;;6.10;4.65;;;;;;;10.14;100.00;101086.28;1037265;28;20685;-53
2023/09/01 03:04:20;;;;;;;5.85;4.82;;;;;;;10.16;100.00;101090.34;1038906;28;20304;-53
2023/09/01 03:04:53;;;;;;;7.25;5.80;;;;;;;10.11;100.00;101084.00;1037156;28;20340;-52
2023/09/01 03:05:25;;;;;;;6.82;6.05;;;;;;;10.00;100.00;101092.63;1033338;28;20317;-54
2023/09/01 03:05:58;;;;;;;5.80;4.60;;;;;;;10.02;100.00;101088.72;1032715;28;20305;-54
2023/09/01 03:06:29;;;;;;;8.88;6.00;;;;;;;10.02;100.00;101087.91;1032501;28;20306;-53
2023/09/01 03:07:01;;;;;;;9.10;5.03;;;;;;;9.99;100.00;101091.81;1032168;28;20645;-54
2023/09/01 03:07:33;;;;;;;7.40;5.75;;;;;;;10.03;100.00;101093.03;1031701;28;20981;-49
2023/09/01 03:08:05;;;;;;;8.00;6.10;;;;;;;9.97;100.00;101093.84;1036776;28;20860;-49
2023/09/01 03:08:38;;;;;;;5.78;5.18;;;;;;;9.95;100.00;101087.91;1042388;28;20296;-53
2023/09/01 03:09:10;;;;;;;10.70;5.43;;;;;;;10.08;100.00;101085.22;1040454;28;20871;-48
2023/09/01 03:09:42;;;;;;;7.13;5.70;;;;;;;10.21;100.00;101085.25;1043975;28;20366;-50
2023/09/01 03:10:13;;;;;;;9.27;6.55;;;;;;;10.18;100.00;101084.81;1040084;28;20355;-52
2023/09/01 03:10:45;;;;;;;9.00;5.50;;;;;;;10.28;100.00;101087.91;1040361;28;20394;-54
2023/09/01 03:11:17;;;;;;;6.95;5.80;;;;;;;10.33;100.00;101084.59;1039770;28;20308;-53
2023/09/01 03:11:49;;;;;;;7.72;5.93;;;;;;;10.36;100.00;101081.53;1040022;28;20307;-54
2023/09/01 03:12:21;;;;;;;10.10;6.00;;;;;;;10.37;100.00;101077.84;1043765;28;20386;-54
2023/09/01 03:12:53;;;;;;;13.75;6.55;;;;;;;10.45;100.00;101077.63;1040058;28;20410;-54
2023/09/01 03:13:25;;;;;;;9.80;5.93;;;;;;;10.52;100.00;101079.25;1040903;28;20306;-51
2023/09/01 03:13:56;;;;;;;13.18;7.05;;;;;;;10.48;100.00;101077.22;1040749;28;20868;-50
2023/09/01 03:14:28;;;;;;;8.85;6.22;;;;;;;10.42;100.00;101078.06;1040540;28;20312;-52
2023/09/01 03:15:00;;;;;;;10.38;6.22;;;;;;;10.37;100.00;101072.50;1040327;28;20426;-53
2023/09/01 03:15:32;;;;;;;7.68;6.80;;;;;;;10.48;100.00;101077.22;1039793;28;20311;-51
2023/09/01 03:16:04;;;;;;;9.85;6.47;;;;;;;10.34;100.00;101071.09;1039540;28;20312;-49
2023/09/01 03:16:37;;;;;;;10.93;6.70;;;;;;;10.47;100.00;101068.41;1036272;28;20305;-51
2023/09/01 03:17:09;;;;;;;10.77;6.55;;;;;;;10.58;100.00;101069.59;1036241;28;20794;-51
2023/09/01 03:17:41;;;;;;;8.25;6.50;;;;;;;10.65;100.00;101070.38;1035611;28;20387;-53
2023/09/01 03:18:13;;;;;;;10.00;6.43;;;;;;;10.68;100.00;101075.31;1035487;28;20432;-53
2023/09/01 03:18:52;;;;;;;8.65;7.00;;;;;;;10.62;100.00;101070.78;1034771;28;20301;-53
2023/09/01 03:19:24;;;;;;;9.35;7.00;;;;;;;10.43;100.00;101072.50;1037946;28;20308;-54
2023/09/01 03:19:55;;;;;;;16.40;7.97;;;;;;;10.44;100.00;101068.00;1036430;28;20806;-54
2023/09/01 03:20:27;;;;;;;8.82;6.47;;;;;;;10.39;100.00;101073.94;1032625;28;20819;-53
2023/09/01 03:21:12;;;;;;;11.48;6.32;;;;;;;10.58;100.00;101069.59;1035906;28;20442;-54
2023/09/01 03:21:44;;;;;;;9.50;6.47;;;;;;;10.64;100.00;101066.06;1036570;28;20309;-53
2023/09/01 03:22:16;;;;;;;11.00;6.63;;;;;;;10.67;100.00;101073.63;1041819;28;20338;-54
2023/09/01 03:22:49;;;;;;;10.23;7.55;;;;;;;10.72;100.00;101071.19;1039614;28;20300;-50
2023/09/01 03:23:21;;;;;;;10.82;6.97;;;;;;;10.74;100.00;101071.78;1035989;28;20408;-51
2023/09/01 03:23:53;;;;;;;7.53;5.88;;;;;;;10.74;100.00;101071.78;1035944;28;20714;-50
2023/09/01 03:24:26;;;;;;;11.32;6.60;;;;;;;10.78;100.00;101070.34;1031963;28;20312;-48
2023/09/01 03:24:58;;;;;;;6.97;6.30;;;;;;;10.77;100.00;101071.34;1031798;28;20404;-50